createdAt,value
2018-04-28T00:01:33.378Z,14.00
2018-04-28T00:04:01.046Z,14.00
2018-04-28T00:06:28.744Z,13.90
2018-04-28T00:08:57.191Z,13.90
2018-04-28T00:11:24.876Z,13.80
2018-04-28T00:13:53.310Z,13.80
2018-04-28T00:16:29.761Z,13.70
2018-04-28T00:19:03.183Z,13.80
2018-04-28T00:21:30.869Z,13.70
2018-04-28T00:23:58.569Z,13.70
2018-04-28T00:26:26.252Z,13.60
2018-04-28T00:28:53.929Z,13.60
2018-04-28T00:31:25.399Z,13.70
2018-04-28T00:33:53.109Z,13.70
2018-04-28T00:36:27.340Z,13.70
2018-04-28T00:38:56.922Z,13.60
2018-04-28T00:41:25.383Z,13.60
2018-04-28T00:43:53.071Z,13.50
2018-04-28T00:46:24.240Z,13.50
2018-04-28T00:49:09.576Z,13.50
2018-04-28T00:51:37.247Z,13.50
2018-04-28T00:54:07.461Z,13.50
2018-04-28T00:56:35.126Z,13.40
2018-04-28T00:59:03.590Z,13.50
2018-04-28T01:01:37.204Z,13.40
2018-04-28T01:04:21.715Z,13.40
2018-04-28T01:06:49.404Z,13.40
2018-04-28T01:09:17.984Z,13.40
2018-04-28T01:11:45.678Z,13.40
2018-04-28T01:14:14.739Z,13.20
2018-04-28T01:16:53.378Z,13.10
2018-04-28T01:19:26.879Z,13.10
2018-04-28T01:21:55.154Z,13.00
2018-04-28T01:24:24.700Z,13.10
2018-04-28T01:27:01.126Z,13.10
2018-04-28T01:29:28.816Z,13.10
2018-04-28T01:31:58.133Z,13.20
2018-04-28T01:34:29.749Z,13.10
2018-04-28T01:37:03.373Z,13.20
2018-04-28T01:39:42.671Z,13.20
2018-04-28T01:42:10.355Z,13.10
2018-04-28T01:44:38.904Z,13.10
2018-04-28T01:47:09.487Z,13.10
2018-04-28T01:49:43.772Z,13.10
2018-04-28T01:52:12.176Z,13.10
2018-04-28T01:54:45.580Z,13.10
2018-04-28T01:57:23.924Z,13.00
2018-04-28T01:59:55.516Z,13.00
2018-04-28T02:02:25.796Z,13.00
2018-04-28T02:04:53.463Z,13.00
2018-04-28T02:07:21.177Z,13.00
2018-04-28T02:09:51.675Z,13.10
2018-04-28T02:12:22.039Z,13.00
2018-04-28T02:14:49.706Z,13.00
2018-04-28T02:17:18.126Z,12.90
2018-04-28T02:19:45.836Z,12.90
2018-04-28T02:22:13.496Z,12.90
2018-04-28T02:24:41.974Z,12.90
2018-04-28T02:27:20.298Z,12.90
2018-04-28T02:29:49.796Z,12.70
2018-04-28T02:32:20.367Z,12.80
2018-04-28T02:34:49.740Z,12.70
2018-04-28T02:37:19.203Z,12.60
2018-04-28T02:39:46.878Z,12.70
2018-04-28T02:42:14.581Z,12.70
2018-04-28T02:44:42.256Z,12.70
2018-04-28T02:47:09.972Z,12.80
2018-04-28T02:49:37.668Z,12.70
2018-04-28T02:52:10.890Z,12.70
2018-04-28T02:54:41.352Z,12.60
2018-04-28T02:57:09.601Z,12.70
2018-04-28T02:59:42.264Z,12.60
2018-04-28T03:02:09.936Z,12.60
2018-04-28T03:04:47.515Z,12.60
2018-04-28T03:07:16.982Z,12.60
2018-04-28T03:09:44.644Z,12.60
2018-04-28T03:12:13.847Z,12.60
2018-04-28T03:14:41.294Z,12.60
2018-04-28T03:17:09.348Z,12.50
2018-04-28T03:19:39.691Z,12.50
2018-04-28T03:22:07.160Z,12.50
2018-04-28T03:24:40.407Z,12.50
2018-04-28T03:27:08.652Z,12.50
2018-04-28T03:29:36.703Z,12.40
2018-04-28T03:32:05.079Z,12.40
2018-04-28T03:34:33.496Z,12.40
2018-04-28T03:37:03.644Z,12.40
2018-04-28T03:39:37.924Z,12.40
2018-04-28T03:42:09.931Z,12.30
2018-04-28T03:44:43.235Z,12.30
2018-04-28T03:47:10.678Z,12.30
2018-04-28T03:49:38.135Z,12.20
2018-04-28T03:52:11.569Z,12.20
2018-04-28T03:54:40.959Z,12.10
2018-04-28T03:57:27.197Z,12.10
2018-04-28T04:00:01.342Z,12.10
2018-04-28T04:02:34.605Z,12.10
2018-04-28T04:05:05.603Z,12.00
2018-04-28T04:07:33.906Z,11.90
2018-04-28T04:10:07.143Z,12.00
2018-04-28T04:12:35.502Z,12.10
2018-04-28T04:15:09.744Z,12.10
2018-04-28T04:17:40.093Z,12.10
2018-04-28T04:20:10.345Z,12.00
2018-04-28T04:22:42.540Z,12.00
2018-04-28T04:25:16.403Z,12.00
2018-04-28T04:27:43.867Z,11.90
2018-04-28T04:30:17.274Z,12.00
2018-04-28T04:32:44.755Z,12.00
2018-04-28T04:35:15.901Z,12.00
2018-04-28T04:37:45.994Z,12.10
2018-04-28T04:40:20.171Z,12.10
2018-04-28T04:42:47.671Z,12.10
2018-04-28T04:45:20.999Z,12.00
2018-04-28T04:47:54.364Z,12.00
2018-04-28T04:50:26.701Z,12.00
2018-04-28T04:52:57.039Z,12.00
2018-04-28T04:55:28.507Z,12.10
2018-04-28T04:57:55.983Z,12.10
2018-04-28T05:00:24.185Z,12.10
2018-04-28T05:02:57.542Z,12.10
2018-04-28T05:05:25.803Z,12.20
2018-04-28T05:07:53.250Z,12.30
2018-04-28T05:10:24.596Z,12.30
2018-04-28T05:12:52.695Z,12.40
2018-04-28T05:15:35.019Z,12.40
2018-04-28T05:18:09.015Z,12.40
2018-04-28T05:20:42.419Z,12.40
2018-04-28T05:23:10.777Z,12.50
2018-04-28T05:25:40.192Z,12.60
2018-04-28T05:28:11.432Z,12.60
2018-04-28T05:30:38.904Z,12.70
2018-04-28T05:33:09.294Z,12.60
2018-04-28T05:35:43.411Z,12.80
2018-04-28T05:38:16.831Z,12.70
2018-04-28T05:40:45.962Z,12.80
2018-04-28T05:43:19.240Z,12.80
2018-04-28T05:45:53.444Z,13.00
2018-04-28T05:48:22.676Z,12.90
2018-04-28T05:51:07.562Z,13.10
2018-04-28T05:53:40.856Z,13.10
2018-04-28T05:56:12.143Z,13.20
2018-04-28T05:58:45.429Z,13.20
2018-04-28T06:01:18.849Z,13.30
2018-04-28T06:03:52.283Z,13.40
2018-04-28T06:06:21.687Z,13.40
2018-04-28T06:08:49.175Z,13.50
2018-04-28T06:11:20.442Z,13.50
2018-04-28T06:13:53.745Z,13.60
2018-04-28T06:16:21.961Z,13.60
2018-04-28T06:18:53.363Z,13.70
2018-04-28T06:21:20.818Z,13.70
2018-04-28T06:23:48.283Z,13.80
2018-04-28T06:26:15.776Z,13.80
2018-04-28T06:28:43.249Z,13.80
2018-04-28T06:31:10.722Z,13.90
2018-04-28T06:33:38.207Z,13.90
2018-04-28T06:36:05.669Z,14.00
2018-04-28T06:38:33.148Z,14.00
2018-04-28T06:41:01.408Z,14.20
2018-04-28T06:43:28.875Z,14.10
2018-04-28T06:45:57.102Z,14.20
2018-04-28T06:48:24.579Z,14.10
2018-04-28T06:50:52.049Z,14.20
2018-04-28T06:53:19.540Z,14.30
2018-04-28T06:55:47.779Z,14.50
2018-04-28T06:58:15.222Z,14.40
2018-04-28T07:00:42.691Z,14.50
2018-04-28T07:03:10.138Z,14.60
2018-04-28T07:05:37.607Z,14.60
2018-04-28T07:08:05.067Z,14.60
2018-04-28T07:10:32.533Z,14.60
2018-04-28T07:12:59.982Z,14.70
2018-04-28T07:15:27.466Z,14.70
2018-04-28T07:17:55.675Z,14.80
2018-04-28T07:20:23.165Z,14.80
2018-04-28T07:22:50.642Z,14.90
2018-04-28T07:25:18.166Z,15.00
2018-04-28T07:27:45.619Z,15.00
2018-04-28T07:30:13.112Z,15.00
2018-04-28T07:32:40.551Z,15.10
2018-04-28T07:35:08.007Z,15.20
2018-04-28T07:37:35.895Z,15.30
2018-04-28T07:40:03.355Z,15.40
2018-04-28T07:42:30.835Z,15.50
2018-04-28T07:44:59.064Z,15.60
2018-04-28T07:47:26.551Z,15.50
2018-04-28T07:49:53.999Z,15.60
2018-04-28T07:52:21.533Z,15.60
2018-04-28T07:54:49.064Z,15.60
2018-04-28T07:57:17.297Z,15.70
2018-04-28T07:59:44.776Z,15.70
2018-04-28T08:02:12.210Z,15.80
2018-04-28T08:04:39.683Z,15.90
2018-04-28T08:07:07.239Z,15.90
2018-04-28T08:09:35.395Z,16.00
2018-04-28T08:12:02.848Z,16.00
2018-04-28T08:14:30.290Z,16.10
2018-04-28T08:16:57.763Z,16.10
2018-04-28T08:19:25.236Z,16.10
2018-04-28T08:21:52.730Z,16.20
2018-04-28T08:24:20.949Z,16.30
2018-04-28T08:26:49.169Z,16.30
2018-04-28T08:29:17.413Z,16.30
2018-04-28T08:31:44.859Z,16.20
2018-04-28T08:34:12.307Z,16.40
2018-04-28T08:36:39.802Z,16.40
2018-04-28T08:39:07.259Z,16.50
2018-04-28T08:41:34.726Z,16.60
2018-04-28T08:44:02.962Z,16.70
2018-04-28T08:46:30.418Z,16.70
2018-04-28T08:48:58.652Z,16.80
2018-04-28T08:51:26.871Z,16.90
2018-04-28T08:53:54.339Z,16.80
2018-04-28T08:56:21.804Z,16.90
2018-04-28T08:58:49.279Z,16.90
2018-04-28T09:01:16.750Z,16.90
2018-04-28T09:03:45.053Z,17.10
2018-04-28T10:28:09.777Z,17.10
2018-04-28T10:30:38.279Z,17.20
2018-04-28T10:33:05.943Z,17.40
2018-04-28T10:35:33.643Z,17.60
2018-04-28T10:38:01.319Z,18.00
2018-04-28T10:40:29.012Z,18.00
2018-04-28T10:42:57.443Z,18.40
2018-04-28T10:45:25.152Z,18.30
2018-04-28T10:47:53.578Z,18.50
2018-04-28T10:50:22.030Z,18.60
2018-04-28T10:52:49.719Z,18.50
2018-04-28T10:55:17.387Z,18.60
2018-04-28T10:57:45.104Z,18.60
2018-04-28T11:00:13.543Z,18.70
2018-04-28T11:02:41.198Z,18.70
2018-04-28T11:05:08.878Z,18.80
2018-04-28T11:07:36.629Z,18.90
2018-04-28T11:10:04.307Z,18.90
2018-04-28T11:12:31.989Z,18.80
2018-04-28T11:14:59.687Z,18.90
2018-04-28T11:17:27.367Z,18.90
2018-04-28T11:19:55.094Z,18.90
2018-04-28T11:22:22.711Z,19.00
2018-04-28T11:24:50.416Z,19.10
2018-04-28T11:27:18.847Z,19.20
2018-04-28T11:29:46.514Z,19.20
2018-04-28T11:32:14.207Z,19.30
2018-04-28T11:34:41.911Z,19.30
2018-04-28T11:37:09.597Z,19.40
2018-04-28T11:39:37.266Z,19.50
2018-04-28T11:42:04.947Z,19.50
2018-04-28T11:44:32.615Z,19.50
2018-04-28T11:47:00.308Z,19.60
2018-04-28T11:49:27.978Z,19.70
2018-04-28T11:51:55.667Z,19.70
2018-04-28T11:54:23.343Z,19.80
2018-04-28T12:11:13.913Z,18.60
2018-04-28T12:13:42.158Z,18.90
2018-04-28T12:16:11.136Z,19.10
2018-04-28T12:18:39.377Z,19.00
2018-04-28T12:21:07.643Z,19.20
2018-04-28T12:23:36.642Z,19.30
2018-04-28T12:26:04.915Z,19.30
2018-04-28T12:28:33.141Z,19.40
2018-04-28T12:31:02.143Z,19.50
2018-04-28T12:33:31.130Z,19.50
2018-04-28T12:36:00.164Z,19.50
2018-04-28T12:38:28.351Z,19.40
2018-04-28T12:40:57.416Z,19.50
2018-04-28T12:43:26.399Z,19.50
2018-04-28T12:45:54.626Z,19.50
2018-04-28T12:48:22.869Z,19.60
2018-04-28T12:50:51.158Z,19.60
2018-04-28T12:53:19.311Z,19.70
2018-04-28T12:55:47.561Z,19.70
2018-04-28T12:58:16.665Z,19.60
2018-04-28T13:00:44.956Z,19.60
2018-04-28T13:03:13.265Z,19.70
2018-04-28T13:05:41.478Z,19.60
2018-04-28T13:08:09.729Z,19.70
2018-04-28T13:10:37.977Z,19.80
2018-04-28T13:13:06.239Z,19.90
2018-04-28T13:15:34.454Z,20.00
2018-04-28T13:18:02.713Z,20.00
2018-04-28T13:20:30.941Z,20.00
2018-04-28T13:22:59.188Z,20.10
2018-04-28T13:25:27.440Z,20.10
2018-04-28T13:27:55.692Z,20.10
2018-04-28T13:30:23.944Z,20.10
2018-04-28T13:32:52.200Z,20.20
2018-04-28T13:35:20.442Z,20.20
2018-04-28T13:37:49.034Z,20.30
2018-04-28T13:40:17.250Z,20.30
2018-04-28T13:42:45.473Z,20.40
2018-04-28T13:45:13.802Z,20.40
2018-04-28T13:47:42.051Z,20.40
2018-04-28T13:50:10.964Z,20.50
2018-04-28T13:52:39.217Z,20.60
2018-04-28T13:55:07.435Z,20.60
2018-04-28T13:57:35.679Z,20.60
2018-04-28T14:00:03.912Z,20.70
2018-04-28T14:02:32.172Z,20.60
2018-04-28T14:05:00.411Z,20.70
2018-04-28T14:07:29.296Z,20.70
2018-04-28T14:09:57.529Z,20.70
2018-04-28T14:12:25.744Z,20.80
2018-04-28T14:14:55.011Z,20.80
2018-04-28T14:17:23.309Z,20.80
2018-04-28T14:19:51.554Z,20.80
2018-04-28T14:22:19.799Z,20.80
2018-04-28T14:24:48.057Z,20.80
2018-04-28T14:27:16.308Z,20.80
2018-04-28T14:29:44.586Z,20.90
2018-04-28T14:32:12.841Z,20.90
2018-04-28T14:34:41.091Z,20.80
2018-04-28T14:37:09.359Z,20.90
2018-04-28T14:39:37.612Z,20.80
2018-04-28T14:42:05.873Z,20.90
2018-04-28T14:44:34.106Z,20.80
2018-04-28T14:47:02.359Z,20.80
2018-04-28T14:49:30.572Z,20.80
2018-04-28T14:51:58.833Z,20.80
2018-04-28T14:54:27.075Z,20.80
2018-04-28T14:56:55.340Z,20.90
2018-04-28T14:59:23.604Z,20.90
2018-04-28T15:01:51.815Z,20.90
2018-04-28T15:04:20.054Z,20.90
2018-04-28T15:06:48.296Z,20.90
2018-04-28T15:09:16.512Z,20.90
2018-04-28T15:11:44.745Z,20.90
2018-04-28T15:14:12.980Z,20.90
2018-04-28T15:16:41.218Z,20.90
2018-04-28T15:19:09.496Z,20.90
2018-04-28T15:21:37.737Z,21.00
2018-04-28T15:24:06.759Z,20.90
2018-04-28T15:26:35.001Z,20.90
2018-04-28T15:29:03.307Z,20.90
2018-04-28T15:31:31.526Z,20.90
2018-04-28T15:33:59.763Z,20.90
2018-04-28T15:36:28.004Z,20.90
2018-04-28T15:38:56.295Z,20.90
2018-04-28T15:41:25.283Z,20.90
2018-04-28T15:43:53.547Z,20.90
2018-04-28T15:46:22.568Z,21.00
2018-04-28T15:48:51.588Z,21.00
2018-04-28T15:51:19.822Z,21.00
2018-04-28T15:53:48.154Z,21.00
2018-04-28T15:56:16.408Z,21.00
2018-04-28T15:58:44.717Z,21.10
2018-04-28T16:01:12.943Z,21.10
2018-04-28T16:03:41.968Z,21.10
2018-04-28T16:06:10.300Z,21.10
2018-04-28T16:08:38.616Z,21.10
2018-04-28T16:11:06.827Z,21.20
2018-04-28T16:13:35.078Z,21.20
2018-04-28T16:16:03.321Z,21.20
2018-04-28T16:18:31.558Z,21.20
2018-04-28T16:20:59.826Z,21.20
2018-04-28T16:23:28.046Z,21.30
2018-04-28T16:25:57.046Z,21.30
2018-04-28T16:28:25.297Z,21.30
2018-04-28T16:30:53.551Z,21.30
2018-04-28T16:33:21.793Z,21.20
2018-04-28T16:35:50.029Z,21.20
2018-04-28T16:38:19.104Z,21.20
2018-04-28T16:40:47.372Z,21.10
2018-04-28T16:43:16.242Z,21.20
2018-04-28T16:45:44.514Z,21.20
2018-04-28T16:48:12.729Z,21.20
2018-04-28T16:50:41.045Z,21.30
2018-04-28T16:53:09.203Z,21.30
2018-04-28T16:55:38.240Z,21.30
2018-04-28T16:58:06.455Z,21.30
2018-04-28T17:00:34.676Z,21.40
2018-04-28T17:03:02.910Z,21.40
2018-04-28T17:05:31.236Z,21.50
2018-04-28T17:07:59.526Z,21.60
2018-04-28T17:10:27.764Z,21.70
2018-04-28T17:12:56.039Z,21.60
2018-04-28T17:15:24.336Z,21.60
2018-04-28T17:17:53.963Z,21.50
2018-04-28T17:20:22.212Z,21.50
2018-04-28T17:22:50.448Z,21.40
2018-04-28T17:25:18.690Z,21.40
2018-04-28T17:27:46.924Z,21.30
2018-04-28T17:30:15.942Z,21.30
2018-04-28T17:32:44.209Z,21.30
2018-04-28T17:35:13.253Z,21.30
2018-04-28T17:37:41.487Z,21.20
2018-04-28T17:40:09.829Z,21.20
2018-04-28T17:42:38.005Z,21.20
2018-04-28T17:45:06.265Z,21.20
2018-04-28T17:47:34.512Z,21.10
2018-04-28T17:50:02.776Z,21.10
2018-04-28T17:52:30.978Z,21.10
2018-04-28T17:54:59.250Z,21.00
2018-04-28T17:57:27.465Z,21.00
2018-04-28T17:59:55.715Z,21.00
2018-04-28T18:02:23.959Z,20.90
2018-04-28T18:04:52.204Z,20.90
2018-04-28T18:07:20.519Z,20.90
2018-04-28T18:09:48.683Z,20.80
2018-04-28T18:12:16.958Z,20.80
2018-04-28T18:14:45.206Z,20.70
2018-04-28T18:17:14.236Z,20.70
2018-04-28T18:19:42.517Z,20.60
2018-04-28T18:22:10.784Z,20.70
2018-04-28T18:24:39.147Z,20.60
2018-04-28T18:27:07.542Z,20.60
2018-04-28T18:29:35.802Z,20.60
2018-04-28T18:32:04.779Z,20.50
2018-04-28T18:34:33.770Z,20.50
2018-04-28T18:37:02.081Z,20.50
2018-04-28T18:39:31.062Z,20.50
2018-04-28T18:41:59.348Z,20.40
2018-04-28T18:44:27.595Z,20.50
2018-04-28T18:46:55.840Z,20.40
2018-04-28T18:49:24.137Z,20.40
2018-04-28T18:51:52.437Z,20.40
2018-04-28T18:54:20.612Z,20.30
2018-04-28T18:56:49.648Z,20.30
2018-04-28T18:59:17.898Z,20.30
2018-04-28T19:01:46.152Z,20.30
2018-04-28T19:04:15.148Z,20.30
2018-04-28T19:06:43.429Z,20.30
2018-04-28T19:09:12.447Z,20.20
2018-04-28T19:11:40.773Z,20.20
2018-04-28T19:14:09.096Z,20.20
2018-04-28T19:16:37.321Z,20.20
2018-04-28T19:19:05.562Z,20.20
2018-04-28T19:21:33.780Z,20.20
2018-04-28T19:24:02.019Z,20.20
2018-04-28T19:26:30.243Z,20.20
2018-04-28T19:28:58.491Z,20.10
2018-04-28T19:31:26.720Z,20.20
2018-04-28T19:33:54.979Z,20.10
2018-04-28T19:36:23.983Z,20.00
2018-04-28T19:38:52.200Z,20.00
2018-04-28T19:41:20.559Z,20.00
2018-04-28T19:43:48.824Z,20.00
2018-04-28T19:46:17.088Z,20.00
2018-04-28T19:48:45.399Z,19.90
2018-04-28T19:51:13.664Z,19.90
2018-04-28T19:53:41.952Z,19.90
2018-04-28T19:56:10.180Z,19.80
2018-04-28T19:58:38.428Z,19.80
2018-04-28T20:01:06.647Z,19.90
2018-04-28T20:03:34.942Z,19.90
2018-04-28T20:06:03.180Z,19.80
2018-04-28T20:08:31.497Z,19.80
2018-04-28T20:10:59.722Z,19.80
2018-04-28T20:13:27.952Z,19.80
2018-04-28T20:15:56.195Z,19.80
2018-04-28T20:18:25.184Z,19.80
2018-04-28T20:20:54.241Z,19.80
2018-04-28T20:23:34.184Z,19.80
2018-04-28T20:26:02.587Z,19.80
2018-04-28T20:28:30.818Z,19.80
2018-04-28T20:30:59.068Z,19.80
2018-04-28T20:33:27.325Z,19.80
2018-04-28T20:35:55.566Z,19.70
2018-04-28T20:38:24.716Z,19.70
2018-04-28T20:40:53.754Z,19.60
2018-04-28T20:43:21.991Z,19.60
2018-04-28T20:45:50.257Z,19.60
2018-04-28T20:48:18.517Z,19.60
2018-04-28T20:50:46.730Z,19.60
2018-04-28T20:53:15.025Z,19.60
2018-04-28T20:55:43.272Z,19.60
2018-04-28T20:58:12.332Z,19.60
2018-04-28T21:00:40.573Z,19.50
2018-04-28T21:03:08.844Z,19.60
2018-04-28T21:05:37.098Z,19.50
2018-04-28T21:08:06.094Z,19.50
2018-04-28T21:10:35.100Z,19.40
2018-04-28T21:13:03.418Z,19.40
2018-04-28T21:15:31.627Z,19.40
2018-04-28T21:18:00.646Z,19.30
2018-04-28T21:20:28.915Z,19.30
2018-04-28T21:22:57.206Z,19.30
2018-04-28T21:25:25.407Z,19.30
2018-04-28T21:27:53.663Z,19.20
2018-04-28T21:30:21.927Z,19.20
2018-04-28T21:32:50.195Z,19.20
2018-04-28T21:35:19.197Z,19.10
2018-04-28T21:37:47.462Z,19.10
2018-04-28T21:40:15.675Z,19.00
2018-04-28T21:42:43.928Z,18.90
2018-04-28T21:45:12.374Z,18.90
2018-04-28T21:47:40.984Z,18.90
2018-04-28T21:50:09.264Z,19.00
2018-04-28T21:52:37.512Z,19.00
2018-04-28T21:55:05.744Z,19.00
2018-04-28T21:57:34.959Z,19.00
2018-04-28T22:00:03.195Z,19.00
2018-04-28T22:02:32.208Z,19.00
2018-04-28T22:05:00.432Z,19.00
2018-04-28T22:07:28.666Z,18.90
2018-04-28T22:09:56.900Z,18.90
2018-04-28T22:12:25.926Z,18.90
2018-04-28T22:14:54.148Z,18.90
2018-04-28T22:17:22.375Z,18.90
2018-04-28T22:19:50.617Z,18.90
2018-04-28T22:22:19.619Z,18.90
2018-04-28T22:24:48.631Z,18.90
2018-04-28T22:27:16.861Z,18.90
2018-04-28T22:29:45.203Z,18.90
2018-04-28T22:32:13.486Z,18.90
2018-04-28T22:34:41.737Z,18.90
2018-04-28T22:37:09.996Z,18.90
2018-04-28T22:39:39.029Z,18.80
2018-04-28T22:42:07.274Z,18.70
2018-04-28T22:44:35.528Z,18.70
2018-04-28T22:47:03.777Z,18.70
2018-04-28T22:49:32.002Z,18.70
2018-04-28T22:52:00.257Z,18.70
2018-04-28T22:54:28.547Z,18.70
2018-04-28T22:56:57.607Z,18.50
2018-04-28T22:59:25.816Z,18.50
2018-04-28T23:01:54.817Z,18.40
2018-04-28T23:04:23.044Z,18.40
2018-04-28T23:06:51.374Z,18.40
2018-04-28T23:09:19.569Z,18.40
2018-04-28T23:11:47.918Z,18.40
2018-04-28T23:14:16.144Z,18.40
2018-04-28T23:16:44.401Z,18.30
2018-04-28T23:19:12.620Z,18.30
2018-04-28T23:21:40.865Z,18.20
2018-04-28T23:24:09.106Z,18.20
2018-04-28T23:26:37.334Z,18.30
2018-04-28T23:29:05.571Z,18.20
2018-04-28T23:31:33.791Z,18.10
2018-04-28T23:34:02.035Z,18.00
2018-04-28T23:36:30.295Z,18.10
2018-04-28T23:38:58.562Z,18.10
2018-04-28T23:41:26.783Z,18.10
2018-04-28T23:43:55.077Z,18.10
2018-04-28T23:46:23.304Z,18.00
2018-04-28T23:48:51.549Z,18.00
2018-04-28T23:51:20.592Z,18.00
2018-04-28T23:53:48.809Z,17.90
2018-04-28T23:56:17.099Z,17.90
2018-04-28T23:58:45.329Z,17.90
